Terminal Aerodrome Forecast
Issued by NWS Wilmington, OH

Current Version | Previous Version | Graphics & Text | Print | Product List | Glossary On
Versions: 1 2 3 4 5 6 7 8 9 10 11 12 13 14 15 16 17 18 19 20 21
000
FTUS41 KILN 042300
TAFCVG
TAF
KCVG 042330Z 0500/0606 23005KT P6SM FEW060 BKN120
     FM050200 20005KT P6SM VCTS BKN060CB
     FM050500 20005KT P6SM SCT070 BKN150
     FM051500 23008KT P6SM SCT070
     FM060000 21003KT P6SM SKC=

USA.gov is the U.S. government's official web portal to all federal, state and local government web resources and services.